createdAt,value
2023-11-01T00:01:13.573Z,8.98
2023-11-01T00:03:40.653Z,9.88
2023-11-01T00:06:08.096Z,9.30
2023-11-01T00:08:35.134Z,10.10
2023-11-01T00:11:02.093Z,7.85
2023-11-01T00:13:29.057Z,8.13
2023-11-01T00:15:55.986Z,6.45
2023-11-01T00:18:23.133Z,7.97
2023-11-01T00:20:50.227Z,6.13
2023-11-01T00:23:17.268Z,5.68
2023-11-01T00:25:44.234Z,5.75
2023-11-01T00:28:11.127Z,9.57
2023-11-01T00:30:38.079Z,5.97
2023-11-01T00:33:05.002Z,9.00
2023-11-01T00:35:31.993Z,7.10
2023-11-01T00:37:58.874Z,8.77
2023-11-01T00:40:25.857Z,7.80
2023-11-01T00:42:52.723Z,11.32
2023-11-01T00:45:20.097Z,6.35
2023-11-01T00:47:47.265Z,10.30
2023-11-01T00:50:14.263Z,9.15
2023-11-01T00:52:41.206Z,7.80
2023-11-01T00:55:08.835Z,7.40
2023-11-01T00:57:35.788Z,8.48
2023-11-01T01:00:02.760Z,7.30
2023-11-01T01:02:29.773Z,6.85
2023-11-01T01:04:57.543Z,7.05
2023-11-01T01:07:24.548Z,9.77
2023-11-01T01:09:51.469Z,8.55
2023-11-01T01:12:18.403Z,8.02
2023-11-01T01:14:45.368Z,7.47
2023-11-01T01:17:12.458Z,9.63
2023-11-01T01:19:39.383Z,9.43
2023-11-01T01:22:06.500Z,8.98
2023-11-01T01:24:33.420Z,8.88
2023-11-01T01:27:00.439Z,9.95
2023-11-01T01:29:27.388Z,9.18
2023-11-01T01:31:54.245Z,9.55
2023-11-01T01:34:21.239Z,8.30
2023-11-01T01:36:48.134Z,7.05
2023-11-01T01:39:15.020Z,9.43
2023-11-01T01:41:41.993Z,8.93
2023-11-01T01:44:09.323Z,7.28
2023-11-01T01:46:36.804Z,6.68
2023-11-01T01:49:04.527Z,8.63
2023-11-01T01:51:31.860Z,7.05
2023-11-01T01:53:59.071Z,6.10
2023-11-01T01:56:26.128Z,9.48
2023-11-01T01:58:53.471Z,8.70
2023-11-01T02:01:29.197Z,6.65
2023-11-01T02:04:02.326Z,10.80
2023-11-01T02:06:29.235Z,7.68
2023-11-01T02:08:56.215Z,7.10
2023-11-01T02:11:23.233Z,8.48
2023-11-01T02:13:50.240Z,9.20
2023-11-01T02:16:17.654Z,6.00
2023-11-01T02:18:44.634Z,5.38
2023-11-01T02:21:14.819Z,6.00
2023-11-01T02:23:44.048Z,8.65
2023-11-01T02:28:37.897Z,7.80
2023-11-01T02:31:06.053Z,13.10
2023-11-01T02:33:32.875Z,15.45
2023-11-01T02:35:59.780Z,12.60
2023-11-01T02:38:26.630Z,11.70
2023-11-01T02:40:54.007Z,7.40
2023-11-01T02:43:21.064Z,7.88
2023-11-01T02:45:48.151Z,7.72
2023-11-01T02:48:15.197Z,9.98
2023-11-01T02:50:42.297Z,10.02
2023-11-01T02:53:09.699Z,11.70
2023-11-01T02:55:36.652Z,10.38
2023-11-01T02:58:04.463Z,11.73
2023-11-01T03:00:31.932Z,12.20
2023-11-01T03:02:58.984Z,9.50
2023-11-01T03:05:28.299Z,7.88
2023-11-01T03:10:22.380Z,6.32
2023-11-01T03:12:49.667Z,6.10
2023-11-01T03:15:16.686Z,6.65
2023-11-01T03:17:43.892Z,6.13
2023-11-01T03:20:12.327Z,6.20
2023-11-01T03:22:40.410Z,5.68
2023-11-01T03:25:09.765Z,7.35
2023-11-01T03:27:36.790Z,4.70
2023-11-01T03:30:03.875Z,4.72
2023-11-01T03:32:31.064Z,5.75
2023-11-01T03:34:58.970Z,6.38
2023-11-01T03:37:26.820Z,6.22
2023-11-01T03:39:53.768Z,4.70
2023-11-01T03:42:22.305Z,11.25
2023-11-01T03:44:50.949Z,9.07
2023-11-01T03:47:18.136Z,5.40
2023-11-01T03:49:45.855Z,4.57
2023-11-01T03:52:12.917Z,5.63
2023-11-01T03:54:39.987Z,6.22
2023-11-01T03:57:07.557Z,6.55
2023-11-01T03:59:34.742Z,7.35
2023-11-01T04:02:01.721Z,7.07
2023-11-01T04:04:28.613Z,6.38
2023-11-01T04:06:55.553Z,7.60
2023-11-01T04:09:22.465Z,9.57
2023-11-01T04:11:49.347Z,8.70
2023-11-01T04:14:16.366Z,7.88
2023-11-01T04:16:43.410Z,5.13
2023-11-01T04:19:12.344Z,6.15
2023-11-01T04:21:39.428Z,6.75
2023-11-01T04:24:06.625Z,5.05
2023-11-01T04:26:34.923Z,4.53
2023-11-01T04:29:01.873Z,7.47
2023-11-01T04:31:28.926Z,4.55
2023-11-01T04:33:55.995Z,7.13
2023-11-01T04:36:26.132Z,5.93
2023-11-01T04:38:58.346Z,7.43
2023-11-01T04:41:28.716Z,7.75
2023-11-01T04:43:56.472Z,8.07
2023-11-01T04:46:23.520Z,8.68
2023-11-01T04:48:51.132Z,9.40
2023-11-01T04:51:18.338Z,6.35
2023-11-01T04:53:47.282Z,8.10
2023-11-01T04:56:14.380Z,8.25
2023-11-01T04:58:41.895Z,7.22
2023-11-01T05:01:09.320Z,7.25
2023-11-01T05:03:37.884Z,9.35
2023-11-01T05:06:06.267Z,10.98
2023-11-01T05:08:33.260Z,6.10
2023-11-01T05:11:00.609Z,6.45
2023-11-01T05:13:27.711Z,9.25
2023-11-01T05:15:55.609Z,10.52
2023-11-01T05:18:24.223Z,11.25
2023-11-01T05:20:52.097Z,9.98
2023-11-01T05:23:20.075Z,11.30
2023-11-01T05:25:47.198Z,9.35
2023-11-01T05:28:14.109Z,11.15
2023-11-01T05:30:41.002Z,9.40
2023-11-01T05:33:08.034Z,11.20
2023-11-01T05:35:38.022Z,8.93
2023-11-01T05:38:06.285Z,8.55
2023-11-01T05:40:33.598Z,9.80
2023-11-01T05:43:00.502Z,9.52
2023-11-01T05:45:27.363Z,8.40
2023-11-01T05:47:54.903Z,8.13
2023-11-01T05:50:27.119Z,9.13
2023-11-01T05:52:57.570Z,8.85
2023-11-01T05:55:33.128Z,10.70
2023-11-01T05:58:08.678Z,10.73
2023-11-01T06:00:39.759Z,8.52
2023-11-01T06:03:08.321Z,10.32
2023-11-01T06:05:36.830Z,11.07
2023-11-01T06:08:04.270Z,10.25
2023-11-01T06:10:32.181Z,10.65
2023-11-01T06:12:59.672Z,12.23
2023-11-01T06:15:26.876Z,9.57
2023-11-01T06:17:54.047Z,8.65
2023-11-01T06:20:21.337Z,12.95
2023-11-01T06:22:48.241Z,8.88
2023-11-01T06:25:17.036Z,10.73
2023-11-01T06:27:44.044Z,10.60
2023-11-01T06:30:11.497Z,8.20
2023-11-01T06:32:38.580Z,7.93
2023-11-01T06:35:05.978Z,8.32
2023-11-01T06:37:33.230Z,10.07
2023-11-01T06:40:00.187Z,8.30
2023-11-01T06:42:27.244Z,11.38
2023-11-01T06:44:54.562Z,11.02
2023-11-01T06:47:21.621Z,9.00
2023-11-01T06:49:51.531Z,9.23
2023-11-01T06:52:18.418Z,8.75
2023-11-01T06:54:45.460Z,8.48
2023-11-01T06:57:12.566Z,9.07
2023-11-01T06:59:43.095Z,8.70
2023-11-01T07:02:10.504Z,7.07
2023-11-01T07:04:37.503Z,9.98
2023-11-01T07:07:04.583Z,11.63
2023-11-01T07:09:32.847Z,9.68
2023-11-01T07:11:59.767Z,9.95
2023-11-01T07:14:26.674Z,10.63
2023-11-01T07:16:53.595Z,11.13
2023-11-01T07:19:20.482Z,12.77
2023-11-01T07:21:47.680Z,14.32
2023-11-01T07:24:14.887Z,12.40
2023-11-01T07:26:41.876Z,8.85
2023-11-01T07:29:08.784Z,8.73
2023-11-01T07:31:35.837Z,10.40
2023-11-01T07:34:02.804Z,11.90
2023-11-01T07:36:29.747Z,12.15
2023-11-01T07:38:56.868Z,9.55
2023-11-01T07:41:24.979Z,9.75
2023-11-01T07:43:51.852Z,10.35
2023-11-01T07:46:18.960Z,11.02
2023-11-01T07:48:45.870Z,10.48
2023-11-01T07:51:12.760Z,12.93
2023-11-01T07:53:39.680Z,9.43
2023-11-01T07:56:07.076Z,11.20
2023-11-01T07:58:34.377Z,10.40
2023-11-01T08:01:01.412Z,9.70
2023-11-01T08:03:30.606Z,8.68
2023-11-01T08:05:57.851Z,8.15
2023-11-01T08:08:24.675Z,8.13
2023-11-01T08:10:51.785Z,9.60
2023-11-01T08:13:18.674Z,7.97
2023-11-01T08:15:45.720Z,8.27
2023-11-01T08:18:12.725Z,8.63
2023-11-01T08:20:40.614Z,8.23
2023-11-01T08:23:07.546Z,9.52
2023-11-01T08:25:35.930Z,7.05
2023-11-01T08:30:30.685Z,8.63
2023-11-01T08:32:57.732Z,7.47
2023-11-01T08:35:25.012Z,9.85
2023-11-01T08:37:52.097Z,6.95
2023-11-01T08:40:19.066Z,8.27
2023-11-01T08:42:45.990Z,8.38
2023-11-01T08:45:13.027Z,7.22
2023-11-01T08:47:46.374Z,8.75
2023-11-01T08:50:14.905Z,8.60
2023-11-01T08:52:46.226Z,6.13
2023-11-01T08:55:14.760Z,7.82
2023-11-01T08:57:43.189Z,10.95
2023-11-01T09:00:11.094Z,9.85
2023-11-01T09:02:38.181Z,8.52
2023-11-01T09:05:05.716Z,7.63
2023-11-01T09:07:32.727Z,10.63
2023-11-01T09:10:02.005Z,8.82
2023-11-01T09:12:29.888Z,10.77
2023-11-01T09:14:57.033Z,10.82
2023-11-01T09:17:24.090Z,11.00
2023-11-01T09:19:50.990Z,7.97
2023-11-01T09:22:18.220Z,8.95
2023-11-01T09:24:45.071Z,10.93
2023-11-01T09:27:11.978Z,12.65
2023-11-01T09:29:39.035Z,7.68
2023-11-01T09:32:06.671Z,8.82
2023-11-01T09:34:34.139Z,8.82
2023-11-01T09:37:01.167Z,8.52
2023-11-01T09:39:28.083Z,10.10
2023-11-01T09:42:08.749Z,9.88
2023-11-01T09:44:37.534Z,7.45
2023-11-01T09:47:05.248Z,8.20
2023-11-01T09:49:32.409Z,10.45
2023-11-01T09:52:02.121Z,9.07
2023-11-01T09:54:29.262Z,8.07
2023-11-01T09:56:59.186Z,7.35
2023-11-01T09:59:26.126Z,7.22
2023-11-01T10:01:53.142Z,9.35
2023-11-01T10:04:20.704Z,8.43
2023-11-01T10:06:47.606Z,8.95
2023-11-01T10:09:14.722Z,8.48
2023-11-01T10:11:43.646Z,6.28
2023-11-01T10:14:10.568Z,8.20
2023-11-01T10:16:38.480Z,8.07
2023-11-01T10:19:05.884Z,8.27
2023-11-01T10:21:32.805Z,8.00
2023-11-01T10:24:02.176Z,6.05
2023-11-01T10:26:30.822Z,7.30
2023-11-01T10:29:01.216Z,9.02
2023-11-01T10:31:28.136Z,6.35
2023-11-01T10:33:55.268Z,7.70
2023-11-01T10:36:22.513Z,9.13
2023-11-01T10:38:53.279Z,11.00
2023-11-01T10:41:20.854Z,7.65
2023-11-01T10:43:49.029Z,8.55
2023-11-01T10:46:17.580Z,8.38
2023-11-01T10:48:47.260Z,6.93
2023-11-01T10:51:15.199Z,9.68
2023-11-01T10:53:43.122Z,7.50
2023-11-01T10:56:10.098Z,8.57
2023-11-01T10:58:43.736Z,7.00
2023-11-01T11:01:32.678Z,7.05
2023-11-01T11:04:22.450Z,8.13
2023-11-01T11:07:21.827Z,7.93
2023-11-01T11:10:11.319Z,7.10
2023-11-01T11:12:38.374Z,9.98
2023-11-01T11:15:05.568Z,7.85
2023-11-01T11:17:32.457Z,7.97
2023-11-01T11:20:17.755Z,9.40
2023-11-01T11:23:03.030Z,6.60
2023-11-01T11:25:39.008Z,5.05
2023-11-01T11:28:06.797Z,4.78
2023-11-01T11:30:46.026Z,7.75
2023-11-01T11:33:14.116Z,6.80
2023-11-01T11:35:41.770Z,8.68
2023-11-01T11:38:35.552Z,6.43
2023-11-01T11:41:15.998Z,5.88
2023-11-01T11:44:01.670Z,8.77
2023-11-01T11:46:29.537Z,7.10
2023-11-01T11:48:58.721Z,6.20
2023-11-01T11:51:25.753Z,6.68
2023-11-01T11:53:52.775Z,5.53
2023-11-01T11:56:20.568Z,9.48
2023-11-01T11:58:47.800Z,8.35
2023-11-01T12:01:27.707Z,7.38
2023-11-01T12:03:59.539Z,6.97
2023-11-01T12:06:38.225Z,7.13
2023-11-01T12:09:11.871Z,7.88
2023-11-01T12:11:38.758Z,14.68
2023-11-01T12:14:05.554Z,10.43
2023-11-01T12:16:33.215Z,10.40
2023-11-01T12:19:19.914Z,8.88
2023-11-01T12:21:56.932Z,7.40
2023-11-01T12:24:27.242Z,7.07
2023-11-01T12:27:00.855Z,6.80
2023-11-01T12:29:35.461Z,7.95
2023-11-01T12:32:07.608Z,10.07
2023-11-01T12:34:35.721Z,8.05
2023-11-01T12:37:14.032Z,6.35
2023-11-01T12:39:41.163Z,6.43
2023-11-01T12:42:25.262Z,7.63
2023-11-01T12:44:54.760Z,9.13
2023-11-01T12:47:22.690Z,6.43
2023-11-01T12:49:51.800Z,7.85
2023-11-01T12:52:21.998Z,6.55
2023-11-01T12:54:49.538Z,7.00
2023-11-01T12:57:18.011Z,7.68
2023-11-01T12:59:45.056Z,8.35
2023-11-01T13:02:12.030Z,10.15
2023-11-01T13:04:38.879Z,8.88
2023-11-01T13:07:06.642Z,7.28
2023-11-01T13:09:33.500Z,8.13
2023-11-01T13:12:00.713Z,9.25
2023-11-01T13:14:27.596Z,6.78
2023-11-01T13:16:54.765Z,8.15
2023-11-01T13:19:21.784Z,6.50
2023-11-01T13:21:49.360Z,8.15
2023-11-01T13:24:16.350Z,6.65
2023-11-01T13:26:43.390Z,9.10
2023-11-01T13:29:10.292Z,8.02
2023-11-01T13:31:37.286Z,7.88
2023-11-01T13:34:04.226Z,6.15
2023-11-01T13:36:31.110Z,7.43
2023-11-01T13:38:58.051Z,8.13
2023-11-01T13:41:25.096Z,7.40
2023-11-01T13:43:51.914Z,8.57
2023-11-01T13:46:18.937Z,8.70
2023-11-01T13:48:46.001Z,8.75
2023-11-01T13:51:12.986Z,7.68
2023-11-01T13:53:39.965Z,8.98
2023-11-01T13:56:07.586Z,7.38
2023-11-01T13:58:36.883Z,8.55
2023-11-01T14:01:05.331Z,9.38
2023-11-01T14:03:34.042Z,8.55
2023-11-01T14:08:28.079Z,10.23
2023-11-01T14:10:55.069Z,7.82
2023-11-01T14:13:22.022Z,9.73
2023-11-01T14:15:49.849Z,8.23
2023-11-01T14:18:20.563Z,8.80
2023-11-01T14:20:50.757Z,11.30
2023-11-01T14:23:18.663Z,8.15
2023-11-01T14:25:46.169Z,9.32
2023-11-01T14:28:14.567Z,8.70
2023-11-01T14:30:42.246Z,8.35
2023-11-01T14:33:09.185Z,8.45
2023-11-01T14:35:36.389Z,7.97
2023-11-01T14:38:04.062Z,8.90
2023-11-01T14:40:31.475Z,9.02
2023-11-01T14:43:01.626Z,8.38
2023-11-01T14:45:28.959Z,8.73
2023-11-01T14:47:57.510Z,9.07
2023-11-01T14:50:25.715Z,9.43
2023-11-01T14:52:52.741Z,10.80
2023-11-01T14:55:20.524Z,12.98
2023-11-01T14:57:48.170Z,8.98
2023-11-01T15:00:18.654Z,9.90
2023-11-01T15:02:47.247Z,9.02
2023-11-01T15:05:14.358Z,11.13
2023-11-01T15:07:41.576Z,11.38
2023-11-01T15:10:09.102Z,9.75
2023-11-01T15:12:36.080Z,10.90
2023-11-01T15:15:04.040Z,9.50
2023-11-01T15:17:31.071Z,10.50
2023-11-01T15:19:58.894Z,8.55
2023-11-01T15:22:26.703Z,8.45
2023-11-01T15:24:55.868Z,8.77
2023-11-01T15:27:25.761Z,9.40
2023-11-01T15:29:53.495Z,8.30
2023-11-01T15:32:20.484Z,7.80
2023-11-01T15:34:47.487Z,9.68
2023-11-01T15:37:15.532Z,10.00
2023-11-01T15:39:43.070Z,6.65
2023-11-01T15:42:11.168Z,8.90
2023-11-01T15:44:38.663Z,11.63
2023-11-01T15:47:05.861Z,9.48
2023-11-01T15:49:32.682Z,9.20
2023-11-01T15:52:02.659Z,10.25
2023-11-01T15:54:30.108Z,15.57
2023-11-01T15:56:56.993Z,10.43
2023-11-01T15:59:23.989Z,9.75
2023-11-01T16:01:52.217Z,11.10
2023-11-01T16:04:19.336Z,10.70
2023-11-01T16:06:46.456Z,10.52
2023-11-01T16:09:15.100Z,7.55
2023-11-01T16:11:42.202Z,10.63
2023-11-01T16:14:09.338Z,8.10
2023-11-01T16:16:37.004Z,7.60
2023-11-01T16:19:03.939Z,6.57
2023-11-01T16:21:32.585Z,7.82
2023-11-01T16:23:59.594Z,8.43
2023-11-01T16:26:26.492Z,7.63
2023-11-01T16:28:54.104Z,6.50
2023-11-01T16:31:21.005Z,7.15
2023-11-01T16:33:47.995Z,10.13
2023-11-01T16:36:15.181Z,6.80
2023-11-01T16:38:42.123Z,6.88
2023-11-01T16:41:09.830Z,6.00
2023-11-01T16:43:37.621Z,14.07
2023-11-01T16:46:04.823Z,13.15
2023-11-01T16:48:32.277Z,11.38
2023-11-01T16:50:59.637Z,7.88
2023-11-01T16:53:28.499Z,11.35
2023-11-01T16:55:55.372Z,10.20
2023-11-01T16:58:22.265Z,7.75
2023-11-01T17:00:49.189Z,6.80
2023-11-01T17:03:16.328Z,9.93
2023-11-01T17:05:43.369Z,7.03
2023-11-01T17:08:10.280Z,8.90
2023-11-01T17:10:37.376Z,6.68
2023-11-01T17:13:05.978Z,9.30
2023-11-01T17:15:33.156Z,7.40
2023-11-01T17:18:00.207Z,5.95
2023-11-01T17:20:27.284Z,7.88
2023-11-01T17:22:58.507Z,11.25
2023-11-01T17:25:43.888Z,8.73
2023-11-01T17:28:22.624Z,11.23
2023-11-01T17:30:50.726Z,7.85
2023-11-01T17:33:22.802Z,9.88
2023-11-01T17:35:49.963Z,7.15
2023-11-01T17:38:40.927Z,7.53
2023-11-01T17:41:10.236Z,12.85
2023-11-01T17:43:48.479Z,10.13
2023-11-01T17:46:19.849Z,6.55
2023-11-01T17:48:47.359Z,5.78
2023-11-01T17:51:14.953Z,6.03
2023-11-01T17:53:42.097Z,11.07
2023-11-01T17:56:09.504Z,8.88
2023-11-01T17:58:36.465Z,8.18
2023-11-01T18:01:04.779Z,8.68
2023-11-01T18:03:36.466Z,10.45
2023-11-01T18:06:03.610Z,6.32
2023-11-01T18:08:34.489Z,7.60
2023-11-01T18:11:05.464Z,8.25
2023-11-01T18:13:34.300Z,8.73
2023-11-01T18:16:06.952Z,8.50
2023-11-01T18:18:42.789Z,11.63
2023-11-01T18:21:19.997Z,27.65
2023-11-01T18:24:00.768Z,50.60
2023-11-01T18:26:29.779Z,110.25
2023-11-01T18:28:59.038Z,64.55
2023-11-01T18:31:45.127Z,61.50
2023-11-01T18:34:22.886Z,40.70
2023-11-01T18:36:53.092Z,21.73
2023-11-01T18:39:24.397Z,19.58
2023-11-01T18:41:51.961Z,21.33
2023-11-01T18:44:27.940Z,15.73
2023-11-01T18:46:57.254Z,11.05
2023-11-01T18:49:26.795Z,9.48
2023-11-01T18:52:01.047Z,8.52
2023-11-01T18:54:39.689Z,12.02
2023-11-01T18:57:15.589Z,10.35
2023-11-01T18:59:43.925Z,12.13
2023-11-01T19:02:38.220Z,10.98
2023-11-01T19:05:15.384Z,9.00
2023-11-01T19:07:48.444Z,14.85
2023-11-01T19:10:21.162Z,12.20
2023-11-01T19:12:51.865Z,14.05
2023-11-01T19:15:38.337Z,11.18
2023-11-01T19:18:07.382Z,12.30
2023-11-01T19:20:34.495Z,12.15
2023-11-01T19:23:01.521Z,12.52
2023-11-01T19:25:28.501Z,12.45
2023-11-01T19:27:55.496Z,13.68
2023-11-01T19:30:22.720Z,13.75
2023-11-01T19:32:49.846Z,17.33
2023-11-01T19:35:16.949Z,14.40
2023-11-01T19:37:44.949Z,20.77
2023-11-01T19:40:11.937Z,13.95
2023-11-01T19:42:38.931Z,15.38
2023-11-01T19:45:08.075Z,14.85
2023-11-01T19:47:37.504Z,18.60
2023-11-01T19:50:05.707Z,17.48
2023-11-01T19:52:32.818Z,18.05
2023-11-01T19:54:59.688Z,17.13
2023-11-01T19:57:26.597Z,17.50
2023-11-01T19:59:54.117Z,18.77
2023-11-01T20:02:21.772Z,16.08
2023-11-01T20:04:50.074Z,11.25
2023-11-01T20:07:17.686Z,14.48
2023-11-01T20:09:44.685Z,10.60
2023-11-01T20:12:12.472Z,10.88
2023-11-01T20:14:41.341Z,13.32
2023-11-01T20:17:11.957Z,11.02
2023-11-01T20:19:38.951Z,12.70
2023-11-01T20:22:05.954Z,13.57
2023-11-01T20:24:33.489Z,13.57
2023-11-01T20:27:00.382Z,13.43
2023-11-01T20:29:27.510Z,12.68
2023-11-01T20:31:54.612Z,13.55
2023-11-01T20:34:22.009Z,13.60
2023-11-01T20:36:49.029Z,15.75
2023-11-01T20:39:16.003Z,18.52
2023-11-01T20:41:43.280Z,16.63
2023-11-01T20:44:10.981Z,16.23
2023-11-01T20:46:37.999Z,16.73
2023-11-01T20:49:05.146Z,17.23
2023-11-01T20:51:32.078Z,15.23
2023-11-01T20:53:59.974Z,11.18
2023-11-01T20:56:27.010Z,18.55
2023-11-01T20:58:54.073Z,17.55
2023-11-01T21:01:21.079Z,18.40
2023-11-01T21:03:48.868Z,22.52
2023-11-01T21:06:16.111Z,16.55
2023-11-01T21:08:43.220Z,16.80
2023-11-01T21:11:10.249Z,14.85
2023-11-01T21:13:37.292Z,17.00
2023-11-01T21:16:04.487Z,21.25
2023-11-01T21:18:32.707Z,13.95
2023-11-01T21:21:02.032Z,16.90
2023-11-01T21:23:29.027Z,15.10
2023-11-01T21:25:56.413Z,18.40
2023-11-01T21:28:23.300Z,16.50
2023-11-01T21:30:50.385Z,17.42
2023-11-01T21:33:22.154Z,16.45
2023-11-01T21:35:49.434Z,13.10
2023-11-01T21:38:17.946Z,16.08
2023-11-01T21:40:47.966Z,13.90
2023-11-01T21:43:21.630Z,13.95
2023-11-01T21:45:50.610Z,14.00
2023-11-01T21:48:21.639Z,13.85
2023-11-01T21:51:06.372Z,13.40
2023-11-01T21:53:38.352Z,14.38
2023-11-01T21:56:06.207Z,14.75
2023-11-01T21:58:33.719Z,15.45
2023-11-01T22:01:05.557Z,13.30
2023-11-01T22:03:42.715Z,15.20
2023-11-01T22:06:21.679Z,14.23
2023-11-01T22:08:56.491Z,12.55
2023-11-01T22:11:23.519Z,12.80
2023-11-01T22:13:50.666Z,13.82
2023-11-01T22:16:37.650Z,15.15
2023-11-01T22:19:20.142Z,12.85
2023-11-01T22:21:47.105Z,17.23
2023-11-01T22:24:16.474Z,13.80
2023-11-01T22:26:45.583Z,13.80
2023-11-01T22:29:24.880Z,13.20
2023-11-01T22:31:56.704Z,12.10
2023-11-01T22:34:23.858Z,14.68
2023-11-01T22:36:52.612Z,13.85
2023-11-01T22:39:32.184Z,14.85
2023-11-01T22:42:00.079Z,15.45
2023-11-01T22:44:26.953Z,15.07
2023-11-01T22:46:53.853Z,18.70
2023-11-01T22:49:20.837Z,16.95
2023-11-01T22:51:48.485Z,14.05
2023-11-01T22:54:15.415Z,14.05
2023-11-01T22:56:42.328Z,14.70
2023-11-01T22:59:09.177Z,14.10
2023-11-01T23:01:38.070Z,14.13
2023-11-01T23:04:05.755Z,14.63
2023-11-01T23:06:32.743Z,14.45
2023-11-01T23:08:59.802Z,12.15
2023-11-01T23:11:26.704Z,13.73
2023-11-01T23:13:53.612Z,16.83
2023-11-01T23:16:20.570Z,13.68
2023-11-01T23:18:47.579Z,16.25
2023-11-01T23:21:14.597Z,17.15
2023-11-01T23:23:41.509Z,14.50
2023-11-01T23:26:18.417Z,15.00
2023-11-01T23:29:06.766Z,22.42
2023-11-01T23:31:43.754Z,17.70
2023-11-01T23:34:37.878Z,13.40
2023-11-01T23:37:25.411Z,13.02
2023-11-01T23:39:52.461Z,16.42
2023-11-01T23:42:20.498Z,14.18
2023-11-01T23:44:48.690Z,14.27
2023-11-01T23:47:43.802Z,13.60
2023-11-01T23:52:51.811Z,12.90
2023-11-01T23:55:18.912Z,14.63
2023-11-01T23:57:46.960Z,15.23
